createdAt,value
2024-04-08T00:00:41.114Z,74.56
2024-04-08T00:01:41.193Z,74.78
2024-04-08T00:02:41.293Z,72.73
2024-04-08T00:03:41.212Z,71.76
2024-04-08T00:04:41.213Z,73.47
2024-04-08T00:05:41.295Z,73.43
2024-04-08T00:06:41.270Z,72.53
2024-04-08T00:07:41.350Z,73.98
2024-04-08T00:08:41.335Z,73.40
2024-04-08T00:09:41.348Z,73.54
2024-04-08T00:10:41.389Z,73.88
2024-04-08T00:11:41.465Z,74.91
2024-04-08T00:12:41.513Z,72.25
2024-04-08T00:13:41.469Z,70.71
2024-04-08T00:14:41.606Z,71.56
2024-04-08T00:15:41.688Z,71.66
2024-04-08T00:16:41.928Z,72.10
2024-04-08T00:17:41.863Z,68.59
2024-04-08T00:18:41.873Z,72.42
2024-04-08T00:19:41.929Z,72.10
2024-04-08T00:20:41.939Z,70.68
2024-04-08T00:21:42.054Z,71.72
2024-04-08T00:22:42.052Z,70.84
2024-04-08T00:23:42.125Z,71.53
2024-04-08T00:24:42.126Z,70.72
2024-04-08T00:25:42.152Z,71.88
2024-04-08T00:26:42.252Z,72.12
2024-04-08T00:27:42.275Z,71.21
2024-04-08T00:28:42.212Z,71.00
2024-04-08T00:29:42.256Z,69.28
2024-04-08T00:30:42.256Z,68.24
2024-04-08T00:31:42.262Z,70.97
2024-04-08T00:32:42.429Z,72.85
2024-04-08T00:33:42.337Z,73.60
2024-04-08T00:34:42.380Z,71.31
2024-04-08T00:35:42.370Z,71.66
2024-04-08T00:36:42.386Z,72.85
2024-04-08T00:37:42.410Z,72.55
2024-04-08T00:38:42.432Z,72.85
2024-04-08T00:39:42.479Z,72.80
2024-04-08T00:40:42.515Z,74.19
2024-04-08T00:41:42.540Z,71.65
2024-04-08T00:42:42.706Z,72.92
2024-04-08T00:43:42.649Z,71.61
2024-04-08T00:44:42.651Z,72.91
2024-04-08T00:45:42.647Z,71.42
2024-04-08T00:46:42.670Z,68.76
2024-04-08T00:47:42.857Z,71.67
2024-04-08T00:48:42.728Z,71.70
2024-04-08T00:49:42.799Z,70.87
2024-04-08T00:50:42.785Z,71.03
2024-04-08T00:51:42.798Z,71.69
2024-04-08T00:52:42.808Z,72.06
2024-04-08T00:53:42.991Z,67.78
2024-04-08T00:54:42.898Z,69.22
2024-04-08T00:55:42.923Z,70.29
2024-04-08T00:56:43.019Z,68.44
2024-04-08T00:57:43.013Z,71.71
2024-04-08T00:58:43.012Z,70.12
2024-04-08T00:59:43.055Z,69.25
2024-04-08T01:00:43.057Z,69.63
2024-04-08T01:01:43.207Z,68.04
2024-04-08T01:02:43.196Z,71.05
2024-04-08T01:03:43.155Z,69.21
2024-04-08T01:04:43.192Z,69.68
2024-04-08T01:05:43.342Z,69.54
2024-04-08T01:06:43.271Z,68.69
2024-04-08T01:07:43.353Z,68.41
2024-04-08T01:08:43.389Z,66.81
2024-04-08T01:09:43.423Z,65.33
2024-04-08T01:10:43.404Z,67.56
2024-04-08T01:11:43.491Z,67.42
2024-04-08T01:12:43.484Z,67.43
2024-04-08T01:13:43.516Z,68.65
2024-04-08T01:14:43.683Z,68.94
2024-04-08T01:15:43.657Z,69.42
2024-04-08T01:16:43.605Z,69.62
2024-04-08T01:17:43.713Z,68.17
2024-04-08T01:18:43.731Z,66.71
2024-04-08T01:19:43.735Z,69.25
2024-04-08T01:20:43.806Z,69.31
2024-04-08T01:21:43.778Z,66.39
2024-04-08T01:22:43.886Z,68.71
2024-04-08T01:23:43.892Z,69.05
2024-04-08T01:24:43.945Z,68.62
2024-04-08T01:25:43.987Z,65.33
2024-04-08T01:26:43.978Z,65.12
2024-04-08T01:27:43.970Z,66.49
2024-04-08T01:28:44.007Z,66.81
2024-04-08T01:29:44.204Z,67.12
2024-04-08T01:30:44.093Z,65.87
2024-04-08T01:31:44.132Z,64.86
2024-04-08T01:32:44.181Z,65.25
2024-04-08T01:33:44.221Z,65.83
2024-04-08T01:34:44.210Z,66.16
2024-04-08T01:35:44.272Z,67.98
2024-04-08T01:36:44.340Z,67.17
2024-04-08T01:37:44.325Z,68.21
2024-04-08T01:38:44.457Z,64.76
2024-04-08T01:39:44.413Z,64.32
2024-04-08T01:40:44.431Z,60.63
2024-04-08T01:41:44.908Z,64.67
2024-04-08T01:42:45.461Z,64.35
2024-04-08T01:43:45.911Z,63.52
2024-04-08T01:44:44.568Z,66.71
2024-04-08T01:45:44.560Z,67.20
2024-04-08T01:46:44.629Z,63.18
2024-04-08T01:47:44.645Z,64.85
2024-04-08T01:48:44.691Z,64.72
2024-04-08T01:49:44.733Z,64.60
2024-04-08T01:50:44.864Z,64.52
2024-04-08T01:51:44.810Z,64.92
2024-04-08T01:52:44.808Z,64.32
2024-04-08T01:53:44.899Z,65.41
2024-04-08T01:54:44.868Z,65.55
2024-04-08T01:55:44.935Z,65.48
2024-04-08T01:56:44.970Z,64.59
2024-04-08T01:57:45.056Z,63.37
2024-04-08T01:58:45.055Z,63.67
2024-04-08T01:59:45.083Z,64.47
2024-04-08T02:00:45.081Z,62.99
2024-04-08T02:01:45.113Z,62.99
2024-04-08T02:02:45.222Z,62.88
2024-04-08T02:03:45.190Z,62.76
2024-04-08T02:04:45.221Z,61.30
2024-04-08T02:05:45.395Z,63.47
2024-04-08T02:06:45.314Z,61.93
2024-04-08T02:07:45.369Z,64.74
2024-04-08T02:08:45.407Z,63.95
2024-04-08T02:09:45.463Z,63.06
2024-04-08T02:10:45.502Z,63.75
2024-04-08T02:11:45.543Z,62.92
2024-04-08T02:12:45.501Z,64.16
2024-04-08T02:13:45.602Z,64.36
2024-04-08T02:14:45.661Z,64.13
2024-04-08T02:15:45.645Z,66.29
2024-04-08T02:16:45.728Z,63.43
2024-04-08T02:17:45.764Z,61.99
2024-04-08T02:18:45.765Z,62.19
2024-04-08T02:19:45.773Z,62.92
2024-04-08T02:20:45.938Z,61.41
2024-04-08T02:21:45.890Z,60.73
2024-04-08T02:22:45.934Z,60.51
2024-04-08T02:23:46.009Z,60.49
2024-04-08T02:24:46.060Z,61.25
2024-04-08T02:25:46.003Z,57.74
2024-04-08T02:26:46.144Z,58.49
2024-04-08T02:27:46.092Z,60.27
2024-04-08T02:28:46.150Z,59.93
2024-04-08T02:29:46.369Z,60.60
2024-04-08T02:30:46.232Z,60.74
2024-04-08T02:31:46.262Z,60.39
2024-04-08T02:32:46.361Z,60.46
2024-04-08T02:33:46.419Z,59.20
2024-04-08T02:34:46.420Z,61.11
2024-04-08T02:35:46.390Z,60.12
2024-04-08T02:36:46.441Z,60.02
2024-04-08T02:37:46.458Z,60.19
2024-04-08T02:38:46.524Z,59.42
2024-04-08T02:39:46.627Z,60.31
2024-04-08T02:40:46.525Z,60.97
2024-04-08T02:41:46.717Z,61.19
2024-04-08T02:42:46.634Z,61.50
2024-04-08T02:43:46.658Z,61.76
2024-04-08T02:44:46.777Z,60.22
2024-04-08T02:45:46.843Z,62.00
2024-04-08T02:46:46.818Z,59.92
2024-04-08T02:47:46.897Z,61.30
2024-04-08T02:48:46.917Z,60.81
2024-04-08T02:49:47.001Z,62.55
2024-04-08T02:50:47.020Z,61.99
2024-04-08T02:51:46.986Z,63.16
2024-04-08T02:52:47.024Z,61.76
2024-04-08T02:53:47.087Z,61.96
2024-04-08T02:54:47.034Z,61.77
2024-04-08T02:55:47.100Z,64.02
2024-04-08T02:56:47.179Z,63.34
2024-04-08T02:57:47.165Z,61.02
2024-04-08T02:58:47.218Z,63.03
2024-04-08T02:59:47.283Z,63.59
2024-04-08T03:00:47.364Z,62.10
2024-04-08T03:01:47.337Z,62.65
2024-04-08T03:02:47.527Z,63.38
2024-04-08T03:03:47.449Z,65.25
2024-04-08T03:04:47.465Z,64.77
2024-04-08T03:05:47.644Z,63.81
2024-04-08T03:06:47.569Z,61.96
2024-04-08T03:07:47.661Z,64.72
2024-04-08T03:08:47.627Z,62.67
2024-04-08T03:09:47.672Z,63.23
2024-04-08T03:10:47.682Z,63.45
2024-04-08T03:11:47.814Z,64.07
2024-04-08T03:12:47.814Z,64.09
2024-04-08T03:13:47.836Z,65.11
2024-04-08T03:14:47.892Z,65.33
2024-04-08T03:15:47.927Z,64.16
2024-04-08T03:16:47.917Z,65.83
2024-04-08T03:17:48.155Z,66.49
2024-04-08T03:18:48.041Z,66.34
2024-04-08T03:19:48.053Z,65.18
2024-04-08T03:20:48.125Z,65.64
2024-04-08T03:21:48.139Z,66.33
2024-04-08T03:22:50.204Z,65.01
2024-04-08T03:23:48.266Z,65.80
2024-04-08T03:24:48.287Z,65.54
2024-04-08T03:25:48.223Z,64.63
2024-04-08T03:26:48.396Z,63.85
2024-04-08T03:27:48.306Z,65.11
2024-04-08T03:28:48.344Z,64.49
2024-04-08T03:29:48.512Z,64.93
2024-04-08T03:30:48.433Z,60.98
2024-04-08T03:31:48.483Z,62.53
2024-04-08T03:32:48.606Z,62.96
2024-04-08T03:33:48.553Z,62.80
2024-04-08T03:34:48.604Z,63.48
2024-04-08T03:35:48.711Z,61.03
2024-04-08T03:36:48.674Z,65.80
2024-04-08T03:37:48.690Z,62.35
2024-04-08T03:38:48.804Z,63.17
2024-04-08T03:39:48.841Z,63.93
2024-04-08T03:40:48.848Z,61.52
2024-04-08T03:41:48.920Z,62.29
2024-04-08T03:42:48.920Z,63.67
2024-04-08T03:43:48.939Z,63.22
2024-04-08T03:44:49.045Z,62.99
2024-04-08T03:45:49.019Z,64.12
2024-04-08T03:46:49.035Z,61.45
2024-04-08T03:47:49.207Z,61.91
2024-04-08T03:48:49.121Z,62.04
2024-04-08T03:49:49.178Z,63.62
2024-04-08T03:50:49.341Z,64.32
2024-04-08T03:51:49.323Z,62.89
2024-04-08T03:52:49.297Z,62.69
2024-04-08T03:53:49.405Z,64.93
2024-04-08T03:54:49.426Z,63.86
2024-04-08T03:55:49.426Z,64.20
2024-04-08T03:56:49.536Z,64.10
2024-04-08T03:57:49.475Z,63.57
2024-04-08T03:58:49.549Z,63.50
2024-04-08T03:59:49.654Z,64.16
2024-04-08T04:00:49.644Z,64.05
2024-04-08T04:01:49.665Z,63.42
2024-04-08T04:02:49.802Z,61.89
2024-04-08T04:03:49.731Z,59.97
2024-04-08T04:04:49.793Z,57.20
2024-04-08T04:05:49.890Z,55.40
2024-04-08T04:06:49.848Z,55.54
2024-04-08T04:07:49.848Z,54.93
2024-04-08T04:08:49.962Z,50.73
2024-04-08T04:09:49.960Z,51.35
2024-04-08T04:10:49.978Z,50.97
2024-04-08T04:11:50.102Z,50.00
2024-04-08T04:12:50.092Z,50.10
2024-04-08T04:13:50.106Z,50.49
2024-04-08T04:14:50.205Z,50.00
2024-04-08T04:15:50.174Z,50.05
2024-04-08T04:16:50.180Z,51.55
2024-04-08T04:17:50.313Z,50.66
2024-04-08T04:18:57.769Z,50.00
2024-04-08T04:19:57.795Z,50.00
2024-04-08T04:20:57.745Z,50.00
2024-04-08T04:21:57.725Z,50.00
2024-04-08T04:22:57.740Z,50.00
2024-04-08T04:23:57.771Z,50.05
2024-04-08T04:24:57.742Z,51.20
2024-04-08T04:25:57.772Z,51.44
2024-04-08T04:26:57.784Z,50.93
2024-04-08T04:27:57.766Z,50.00
2024-04-08T04:28:57.805Z,51.86
2024-04-08T04:29:57.804Z,50.00
2024-04-08T04:31:05.580Z,50.00
2024-04-08T04:32:05.284Z,50.00
2024-04-08T04:33:05.307Z,50.00
2024-04-08T04:34:05.291Z,50.00
2024-04-08T04:35:05.334Z,50.00
2024-04-08T04:36:05.303Z,51.91
2024-04-08T04:37:05.316Z,52.80
2024-04-08T04:38:05.303Z,51.79
2024-04-08T04:39:05.326Z,52.29
2024-04-08T04:40:05.397Z,55.25
2024-04-08T04:41:05.347Z,54.30
2024-04-08T04:42:05.376Z,55.26
2024-04-08T04:43:05.308Z,54.98
2024-04-08T04:44:05.313Z,56.66
2024-04-08T04:45:05.385Z,56.68
2024-04-08T04:46:05.331Z,57.75
2024-04-08T04:47:05.361Z,58.63
2024-04-08T04:48:05.462Z,60.34
2024-04-08T04:49:05.318Z,61.83
2024-04-08T04:50:05.371Z,61.94
2024-04-08T04:51:05.400Z,63.59
2024-04-08T04:52:05.369Z,61.65
2024-04-08T04:53:05.327Z,64.87
2024-04-08T04:54:05.383Z,64.70
2024-04-08T04:55:05.331Z,65.97
2024-04-08T04:56:05.345Z,67.62
2024-04-08T04:57:05.352Z,67.47
2024-04-08T04:58:05.350Z,65.14
2024-04-08T04:59:05.376Z,69.25
2024-04-08T05:00:05.363Z,70.52
2024-04-08T05:01:05.372Z,69.30
2024-04-08T05:02:05.364Z,70.33
2024-04-08T05:03:05.338Z,70.71
2024-04-08T05:04:05.410Z,72.34
2024-04-08T05:05:05.376Z,73.58
2024-04-08T05:06:05.412Z,72.48
2024-04-08T05:07:05.469Z,72.60
2024-04-08T05:08:05.531Z,72.26
2024-04-08T05:09:05.555Z,74.60
2024-04-08T05:10:05.640Z,74.89
2024-04-08T05:11:07.307Z,74.79
2024-04-08T05:12:05.674Z,76.60
2024-04-08T05:13:05.674Z,78.85
2024-04-08T05:14:05.701Z,76.52
2024-04-08T05:15:05.688Z,79.98
2024-04-08T05:16:05.659Z,78.78
2024-04-08T05:17:05.717Z,77.34
2024-04-08T05:18:08.480Z,79.36
2024-04-08T05:19:05.687Z,78.41
2024-04-08T05:20:05.666Z,77.93
2024-04-08T05:21:05.692Z,77.74
2024-04-08T05:22:05.687Z,80.04
2024-04-08T05:23:05.688Z,78.09
2024-04-08T05:24:05.718Z,80.92
2024-04-08T05:25:05.692Z,78.99
2024-04-08T05:26:05.692Z,80.72
2024-04-08T05:27:05.777Z,79.96
2024-04-08T05:28:05.709Z,83.13
2024-04-08T05:29:05.748Z,83.10
2024-04-08T05:30:05.784Z,82.99
2024-04-08T05:31:05.730Z,84.42
2024-04-08T05:32:05.752Z,81.82
2024-04-08T05:33:05.815Z,85.84
2024-04-08T05:34:05.747Z,84.26
2024-04-08T05:35:05.726Z,84.24
2024-04-08T05:36:05.757Z,81.36
2024-04-08T05:37:05.735Z,90.76
2024-04-08T05:38:05.758Z,95.76
2024-04-08T05:39:05.771Z,92.15
2024-04-08T05:40:05.742Z,86.87
2024-04-08T05:41:05.797Z,80.84
2024-04-08T05:42:05.712Z,71.67
2024-04-08T05:43:06.043Z,64.38
2024-04-08T05:44:06.565Z,59.40
2024-04-08T05:45:05.928Z,52.75
2024-04-08T05:46:05.755Z,48.84
2024-04-08T05:47:05.777Z,50.01
2024-04-08T05:48:05.891Z,50.78
2024-04-08T05:49:05.787Z,50.81
2024-04-08T05:50:05.982Z,50.90
2024-04-08T05:51:05.790Z,50.82
2024-04-08T05:52:05.820Z,55.31
2024-04-08T05:53:06.727Z,54.77
2024-04-08T05:54:07.551Z,55.08
2024-04-08T05:55:05.765Z,60.73
2024-04-08T05:56:07.560Z,63.90
2024-04-08T05:57:06.055Z,66.86
2024-04-08T05:58:05.758Z,74.87
2024-04-08T05:59:06.940Z,75.86
2024-04-08T06:00:06.104Z,85.60
2024-04-08T06:01:05.826Z,86.83
2024-04-08T06:02:05.827Z,90.36
2024-04-08T06:03:06.355Z,92.57
2024-04-08T06:04:05.760Z,101.12
2024-04-08T06:05:05.858Z,102.72
2024-04-08T06:06:05.827Z,108.78
2024-04-08T06:07:05.796Z,116.64
2024-04-08T06:08:05.780Z,122.71
2024-04-08T06:09:06.095Z,127.39
2024-04-08T06:10:05.776Z,131.21
2024-04-08T06:11:05.832Z,138.19
2024-04-08T06:12:05.954Z,142.46
2024-04-08T06:13:06.659Z,148.83
2024-04-08T06:14:05.847Z,150.57
2024-04-08T06:15:05.843Z,154.21
2024-04-08T06:16:05.963Z,158.08
2024-04-08T06:17:06.074Z,161.28
2024-04-08T06:18:06.063Z,164.25
2024-04-08T06:19:05.959Z,165.82
2024-04-08T06:20:05.979Z,169.56
2024-04-08T06:21:06.034Z,169.46
2024-04-08T06:22:06.107Z,170.45
2024-04-08T06:23:06.021Z,173.73
2024-04-08T06:24:06.114Z,174.86
2024-04-08T06:25:06.638Z,178.12
2024-04-08T06:26:06.228Z,175.80
2024-04-08T06:27:06.214Z,178.48
2024-04-08T06:28:06.316Z,182.36
2024-04-08T06:29:06.128Z,187.14
2024-04-08T06:30:06.644Z,184.65
2024-04-08T06:31:06.572Z,183.84
2024-04-08T06:32:06.150Z,188.54
2024-04-08T06:33:06.219Z,191.07
2024-04-08T06:34:06.173Z,184.39
2024-04-08T06:35:06.264Z,185.66
2024-04-08T06:36:06.238Z,182.88
2024-04-08T06:37:06.586Z,181.46
2024-04-08T06:38:06.219Z,182.79
2024-04-08T06:39:06.564Z,173.96
2024-04-08T06:40:06.316Z,178.48
2024-04-08T06:41:06.531Z,172.71
2024-04-08T06:42:06.357Z,166.03
2024-04-08T06:43:06.425Z,157.79
2024-04-08T06:44:07.387Z,148.07
2024-04-08T06:45:09.210Z,142.45
2024-04-08T06:46:06.714Z,137.76
2024-04-08T06:47:06.678Z,133.39
2024-04-08T06:48:06.484Z,132.02
2024-04-08T06:49:06.462Z,124.65
2024-04-08T06:50:06.472Z,122.31
2024-04-08T06:51:06.593Z,121.29
2024-04-08T06:52:06.714Z,117.58
2024-04-08T06:53:06.517Z,117.52
2024-04-08T06:54:06.515Z,120.67
2024-04-08T06:55:06.537Z,118.12
2024-04-08T06:56:06.500Z,117.81
2024-04-08T06:57:06.785Z,115.25
2024-04-08T06:58:07.138Z,117.82
2024-04-08T06:59:06.456Z,118.97
2024-04-08T07:00:06.612Z,117.17
2024-04-08T07:01:06.703Z,119.87
2024-04-08T07:02:06.512Z,120.35
2024-04-08T07:03:06.506Z,121.26
2024-04-08T07:04:06.688Z,124.84
2024-04-08T07:05:06.404Z,124.77
2024-04-08T07:06:06.538Z,129.31
2024-04-08T07:07:06.545Z,130.14
2024-04-08T07:08:06.592Z,133.90
2024-04-08T07:09:06.479Z,136.99
2024-04-08T07:10:06.454Z,138.31
2024-04-08T07:11:06.668Z,142.57
2024-04-08T07:12:06.472Z,142.43
2024-04-08T07:13:06.566Z,147.03
2024-04-08T07:14:06.465Z,148.82
2024-04-08T07:15:07.206Z,150.50
2024-04-08T07:16:06.441Z,149.54
2024-04-08T07:17:06.491Z,155.82
2024-04-08T07:18:06.566Z,158.66
2024-04-08T07:19:06.578Z,163.02
2024-04-08T07:20:08.044Z,166.70
2024-04-08T07:21:06.680Z,166.67
2024-04-08T07:22:06.540Z,167.84
2024-04-08T07:23:06.529Z,166.83
2024-04-08T07:24:07.083Z,168.91
2024-04-08T07:25:06.553Z,170.25
2024-04-08T07:26:06.443Z,170.61
2024-04-08T07:27:06.623Z,168.36
2024-04-08T07:28:06.548Z,171.92
2024-04-08T07:29:06.472Z,172.24
2024-04-08T07:30:06.672Z,173.16
2024-04-08T07:31:06.464Z,167.99
2024-04-08T07:32:06.489Z,166.61
2024-04-08T07:33:06.568Z,173.55
2024-04-08T07:34:06.560Z,175.94
2024-04-08T07:35:06.496Z,174.36
2024-04-08T07:36:06.555Z,168.12
2024-04-08T07:37:06.578Z,155.12
2024-04-08T07:38:06.646Z,137.13
2024-04-08T07:39:11.673Z,121.40
2024-04-08T07:40:07.734Z,103.59
2024-04-08T07:41:06.744Z,88.86
2024-04-08T07:42:06.883Z,67.42
2024-04-08T07:43:06.733Z,54.11
2024-04-08T07:44:07.050Z,49.40
2024-04-08T07:45:06.844Z,51.19
2024-04-08T07:46:06.777Z,50.00
2024-04-08T07:47:07.513Z,50.43
2024-04-08T07:48:06.821Z,50.17
2024-04-08T07:49:07.536Z,49.07
2024-04-08T07:50:07.119Z,53.35
2024-04-08T07:51:07.046Z,57.58
2024-04-08T07:52:06.987Z,56.17
2024-04-08T07:53:07.155Z,52.82
2024-04-08T07:54:07.250Z,54.34
2024-04-08T07:55:07.560Z,53.11
2024-04-08T07:56:07.176Z,53.29
2024-04-08T07:57:07.300Z,56.22
2024-04-08T07:58:07.246Z,58.36
2024-04-08T07:59:07.384Z,58.25
2024-04-08T08:00:07.330Z,58.54
2024-04-08T08:01:07.531Z,57.59
2024-04-08T08:02:07.386Z,55.83
2024-04-08T08:03:07.422Z,52.35
2024-04-08T08:04:07.421Z,58.28
2024-04-08T08:05:07.694Z,56.44
2024-04-08T08:06:09.803Z,53.25
2024-04-08T08:07:08.055Z,54.16
2024-04-08T08:08:07.654Z,55.96
2024-04-08T08:09:07.806Z,54.55
2024-04-08T08:10:07.827Z,53.36
2024-04-08T08:11:07.774Z,112.13
2024-04-08T08:12:08.049Z,119.57
2024-04-08T08:13:11.193Z,105.94
2024-04-08T08:14:07.807Z,106.05
2024-04-08T08:15:07.880Z,106.15
2024-04-08T08:16:08.390Z,106.41
2024-04-08T08:17:08.026Z,106.94
2024-04-08T08:18:07.918Z,106.73
2024-04-08T08:19:07.983Z,110.42
2024-04-08T08:20:07.839Z,111.66
2024-04-08T08:21:07.986Z,104.67
2024-04-08T08:22:08.069Z,103.52
2024-04-08T08:23:07.808Z,96.94
2024-04-08T08:24:07.929Z,95.47
2024-04-08T08:25:07.834Z,93.22
2024-04-08T08:26:07.840Z,94.75
2024-04-08T08:27:08.112Z,90.19
2024-04-08T08:28:07.875Z,90.17
2024-04-08T08:29:07.852Z,88.40
2024-04-08T08:30:08.537Z,80.12
2024-04-08T08:31:07.952Z,76.12
2024-04-08T08:32:08.015Z,60.95
2024-04-08T08:33:07.967Z,51.12
2024-04-08T08:34:07.862Z,48.65
2024-04-08T08:35:07.821Z,50.00
2024-04-08T08:36:07.992Z,48.96
2024-04-08T08:37:07.852Z,50.33
2024-04-08T08:38:07.870Z,50.00
2024-04-08T08:39:08.039Z,50.00
2024-04-08T08:40:09.490Z,47.65
2024-04-08T08:41:08.569Z,51.15
2024-04-08T08:42:07.938Z,51.45
2024-04-08T08:43:08.569Z,50.78
2024-04-08T08:44:08.598Z,49.97
2024-04-08T08:45:08.134Z,52.62
2024-04-08T08:46:08.568Z,50.32
2024-04-08T08:47:08.094Z,52.33
2024-04-08T08:48:08.201Z,54.67
2024-04-08T08:49:09.070Z,50.82
2024-04-08T08:50:08.143Z,54.80
2024-04-08T08:51:08.348Z,59.17
2024-04-08T08:52:08.600Z,61.91
2024-04-08T08:53:09.049Z,58.44
2024-04-08T08:54:08.650Z,52.51
2024-04-08T08:55:09.055Z,52.33
2024-04-08T08:56:08.186Z,51.83
2024-04-08T08:57:08.398Z,49.94
2024-04-08T08:58:08.254Z,51.30
2024-04-08T08:59:08.590Z,49.22
2024-04-08T09:00:08.520Z,53.55
2024-04-08T09:01:08.426Z,52.23
2024-04-08T09:02:10.050Z,53.04
2024-04-08T09:03:09.984Z,51.11
2024-04-08T09:04:10.683Z,53.21
2024-04-08T09:05:08.532Z,54.13
2024-04-08T09:06:09.137Z,62.45
2024-04-08T09:07:09.037Z,73.24
2024-04-08T09:08:08.847Z,66.57
2024-04-08T09:09:08.558Z,60.37
2024-04-08T09:10:09.372Z,57.31
2024-04-08T09:11:08.456Z,53.74
2024-04-08T09:12:08.614Z,53.29
2024-04-08T09:13:08.410Z,50.00
2024-04-08T09:14:08.431Z,50.68
2024-04-08T09:15:09.090Z,51.06
2024-04-08T09:16:08.430Z,51.25
2024-04-08T09:17:08.509Z,51.23
2024-04-08T09:18:12.036Z,50.22
2024-04-08T09:19:08.453Z,50.37
2024-04-08T09:20:10.283Z,53.01
2024-04-08T09:21:33.451Z,59.44
2024-04-08T09:22:08.468Z,50.65
2024-04-08T09:23:08.404Z,54.38
2024-04-08T09:24:08.474Z,63.30
2024-04-08T09:25:08.484Z,75.29
2024-04-08T09:26:08.412Z,93.31
2024-04-08T09:27:08.523Z,104.33
2024-04-08T09:28:08.490Z,103.98
2024-04-08T09:29:08.409Z,110.06
2024-04-08T09:30:09.408Z,107.82
2024-04-08T09:31:08.514Z,110.80
2024-04-08T09:32:08.474Z,113.35
2024-04-08T09:33:08.505Z,114.40
2024-04-08T09:34:08.529Z,120.41
2024-04-08T09:35:08.477Z,126.39
2024-04-08T09:36:08.543Z,134.50
2024-04-08T09:37:08.423Z,143.25
2024-04-08T09:38:08.446Z,149.38
2024-04-08T09:39:08.593Z,159.66
2024-04-08T09:40:08.468Z,169.01
2024-04-08T09:41:08.426Z,215.30
2024-04-08T09:42:08.557Z,198.42
2024-04-08T09:43:09.127Z,198.27
2024-04-08T09:44:08.460Z,200.00
2024-04-08T09:45:08.569Z,199.24
2024-04-08T09:46:08.493Z,199.45
2024-04-08T09:47:08.459Z,200.00
2024-04-08T09:48:09.073Z,198.89
2024-04-08T09:49:17.917Z,198.25
2024-04-08T09:50:09.444Z,198.33
2024-04-08T09:51:08.516Z,198.36
2024-04-08T09:52:08.634Z,197.44
2024-04-08T09:53:08.514Z,198.35
2024-04-08T09:54:08.587Z,194.76
2024-04-08T09:55:08.560Z,195.69
2024-04-08T09:56:09.770Z,196.54
2024-04-08T09:57:08.521Z,194.58
2024-04-08T09:58:08.564Z,191.83
2024-04-08T09:59:08.587Z,191.06
2024-04-08T10:00:08.663Z,189.85
2024-04-08T10:01:08.648Z,185.36
2024-04-08T10:02:10.050Z,184.32
2024-04-08T10:03:08.994Z,185.33
2024-04-08T10:04:08.806Z,188.92
2024-04-08T10:05:08.832Z,193.45
2024-04-08T10:06:08.913Z,193.83
2024-04-08T10:07:08.898Z,190.99
2024-04-08T10:08:08.931Z,192.12
2024-04-08T10:09:09.069Z,195.23
2024-04-08T10:10:08.959Z,195.41
2024-04-08T10:11:08.966Z,196.15
2024-04-08T10:12:09.539Z,193.65
2024-04-08T10:13:08.988Z,193.93
2024-04-08T10:14:09.029Z,199.91
2024-04-08T10:15:09.215Z,198.93
2024-04-08T10:16:09.030Z,200.18
2024-04-08T10:17:09.034Z,199.59
2024-04-08T10:18:10.156Z,200.00
2024-04-08T10:19:09.117Z,198.16
2024-04-08T10:20:09.175Z,199.94
2024-04-08T10:21:09.174Z,199.77
2024-04-08T10:22:09.252Z,199.34
2024-04-08T10:23:09.460Z,199.38
2024-04-08T10:24:09.400Z,199.02
2024-04-08T10:25:09.424Z,198.84
2024-04-08T10:26:11.015Z,200.00
2024-04-08T10:27:09.780Z,198.24
2024-04-08T10:28:09.697Z,196.85
2024-04-08T10:29:09.659Z,196.59
2024-04-08T10:30:10.104Z,195.14
2024-04-08T10:31:10.136Z,197.16
2024-04-08T10:32:09.847Z,196.88
2024-04-08T10:33:10.075Z,200.14
2024-04-08T10:34:09.991Z,198.24
2024-04-08T10:35:10.053Z,197.99
2024-04-08T10:36:10.549Z,199.53
2024-04-08T10:37:10.173Z,196.84
2024-04-08T10:38:10.223Z,197.88
2024-04-08T10:39:10.418Z,199.55
2024-04-08T10:40:10.489Z,200.00
2024-04-08T10:41:10.567Z,199.04
2024-04-08T10:42:10.687Z,199.48
2024-04-08T10:43:10.550Z,197.91
2024-04-08T10:44:10.618Z,196.70
2024-04-08T10:45:11.358Z,200.00
2024-04-08T10:46:10.747Z,200.00
2024-04-08T10:47:10.942Z,199.58
2024-04-08T10:48:11.094Z,199.09
2024-04-08T10:49:10.912Z,199.99
2024-04-08T10:50:11.487Z,200.00
2024-04-08T10:51:11.137Z,198.46
2024-04-08T10:52:11.146Z,200.00
2024-04-08T10:53:11.291Z,198.77
2024-04-08T10:54:11.536Z,198.56
2024-04-08T10:55:11.249Z,195.87
2024-04-08T10:56:12.098Z,197.60
2024-04-08T10:57:11.437Z,196.61
2024-04-08T10:58:11.394Z,196.23
2024-04-08T10:59:14.786Z,199.75
2024-04-08T11:00:11.581Z,199.89
2024-04-08T11:01:11.456Z,198.76
2024-04-08T11:02:11.929Z,195.36
2024-04-08T11:03:11.531Z,197.42
2024-04-08T11:04:11.477Z,198.49
2024-04-08T11:05:11.432Z,199.62
2024-04-08T11:06:11.811Z,199.54
2024-04-08T11:07:11.490Z,194.91
2024-04-08T11:08:11.442Z,197.77
2024-04-08T11:09:11.672Z,193.90
2024-04-08T11:10:11.989Z,196.57
2024-04-08T11:11:12.009Z,195.30
2024-04-08T11:12:11.583Z,195.57
2024-04-08T11:13:11.455Z,192.52
2024-04-08T11:14:12.490Z,191.41
2024-04-08T11:15:12.113Z,193.02
2024-04-08T11:16:11.910Z,190.63
2024-04-08T11:17:11.526Z,191.61
2024-04-08T11:18:11.644Z,187.44
2024-04-08T11:19:12.509Z,183.98
2024-04-08T11:20:11.476Z,184.73
2024-04-08T11:21:11.589Z,187.75
2024-04-08T11:22:11.443Z,190.60
2024-04-08T11:23:11.448Z,188.21
2024-04-08T11:24:11.594Z,185.50
2024-04-08T11:25:11.471Z,181.87
2024-04-08T11:26:11.475Z,178.24
2024-04-08T11:27:11.571Z,174.48
2024-04-08T11:28:11.498Z,170.66
2024-04-08T11:29:11.544Z,167.86
2024-04-08T11:30:11.595Z,164.52
2024-04-08T11:31:11.518Z,160.65
2024-04-08T11:32:11.520Z,155.48
2024-04-08T11:33:11.579Z,152.94
2024-04-08T11:34:11.549Z,148.96
2024-04-08T11:35:11.524Z,144.77
2024-04-08T11:36:11.550Z,143.43
2024-04-08T11:37:12.110Z,139.80
2024-04-08T11:38:21.568Z,136.46
2024-04-08T11:39:12.515Z,135.69
2024-04-08T11:40:11.537Z,133.86
2024-04-08T11:41:12.471Z,128.12
2024-04-08T11:42:11.592Z,126.36
2024-04-08T11:43:11.678Z,122.81
2024-04-08T11:44:11.798Z,118.02
2024-04-08T11:45:11.699Z,115.99
2024-04-08T11:46:11.738Z,111.74
2024-04-08T11:47:11.695Z,106.84
2024-04-08T11:48:11.730Z,105.92
2024-04-08T11:49:11.724Z,102.85
2024-04-08T11:50:11.736Z,97.53
2024-04-08T11:51:11.773Z,94.95
2024-04-08T11:52:11.805Z,91.16
2024-04-08T11:53:11.874Z,90.73
2024-04-08T11:54:11.906Z,89.86
2024-04-08T11:55:11.965Z,84.38
2024-04-08T11:56:12.019Z,81.58
2024-04-08T11:57:12.092Z,79.91
2024-04-08T11:58:12.005Z,78.52
2024-04-08T11:59:12.064Z,68.17
2024-04-08T12:00:12.169Z,61.83
2024-04-08T12:01:12.177Z,58.73
2024-04-08T12:02:12.237Z,48.86
2024-04-08T12:03:12.283Z,49.60
2024-04-08T12:04:12.328Z,50.00
2024-04-08T12:05:12.309Z,50.00
2024-04-08T12:06:12.409Z,50.00
2024-04-08T12:07:12.341Z,50.32
2024-04-08T12:08:12.385Z,50.21
2024-04-08T12:09:12.503Z,50.83
2024-04-08T12:10:12.496Z,50.00
2024-04-08T12:11:12.532Z,49.95
2024-04-08T12:12:12.518Z,49.85
2024-04-08T12:13:12.506Z,50.00
2024-04-08T12:14:12.610Z,50.80
2024-04-08T12:15:12.658Z,50.59
2024-04-08T12:16:13.045Z,52.84
2024-04-08T12:17:12.636Z,50.45
2024-04-08T12:18:12.755Z,50.00
2024-04-08T12:19:12.721Z,50.00
2024-04-08T12:20:12.757Z,50.35
2024-04-08T12:21:13.501Z,50.14
2024-04-08T12:22:12.890Z,50.79
2024-04-08T12:23:13.112Z,50.00
2024-04-08T12:24:12.946Z,51.25
2024-04-08T12:25:12.988Z,50.08
2024-04-08T12:26:13.933Z,51.02
2024-04-08T12:27:13.168Z,50.46
2024-04-08T12:28:13.036Z,50.23
2024-04-08T12:29:13.480Z,50.00
2024-04-08T12:30:13.222Z,50.98
2024-04-08T12:31:13.408Z,50.22
2024-04-08T12:32:13.436Z,49.96
2024-04-08T12:33:13.268Z,49.66
2024-04-08T12:34:13.347Z,49.97
2024-04-08T12:35:13.280Z,49.98
2024-04-08T12:36:13.390Z,50.00
2024-04-08T12:37:13.444Z,50.88
2024-04-08T12:38:13.354Z,50.14
2024-04-08T12:39:13.430Z,50.60
2024-04-08T12:40:13.942Z,50.40
2024-04-08T12:41:13.511Z,50.33
2024-04-08T12:42:13.696Z,50.00
2024-04-08T12:43:13.567Z,50.30
2024-04-08T12:44:13.697Z,50.04
2024-04-08T12:45:15.642Z,50.84